^^
Datos históricos de la estación: Murcia-Puente Tocinos
Diario Informe para Julio 8, 2019 Unidades:  Métrico    Inglés   Ambas
Diario Semanal Mensual Anual Configurable
  Máximo: Mínimo: Media:
Temperatura: 30.3 °C 23.3 °C 26.7 °C
Punto de rocio: 21.2 °C 14.7 °C 19.3 °C
Humedad: 83% 39% 65%
Velocidad viento: 23.3km/h 0.0km/h 10.5km/h
Racha viento: 40.7km/h - -
Viento- - East
Presión: 1010.2 hPa 1006.7 hPa -
Precipitación: 0.0 mm    
Historical Graphs
 
 
Tabla de datos para Julio 8, 2019
Hora Temperatura Punto de rocio Presión Viento Velocidad viento Racha viento Humedad Intensidad lluvia(por hora) Nubes
00:04 29.2 °C 16.7 °C 1008.9 hPa NE 7.6 km/h 14.8 km/h 47% 0.0 mm CLR
00:09 29.1 °C 17.9 °C 1008.9 hPa North 9.5 km/h 24.1 km/h 51% 0.0 mm CLR
00:14 28.6 °C 18.4 °C 1008.9 hPa NNE 9.5 km/h 16.7 km/h 54% 0.0 mm CLR
00:19 28.4 °C 18.5 °C 1008.7 hPa North 13.7 km/h 16.7 km/h 55% 0.0 mm CLR
00:24 28.3 °C 19.5 °C 1008.7 hPa NE 13.7 km/h 27.8 km/h 59% 0.0 mm CLR
00:29 28.0 °C 19.8 °C 1008.7 hPa East 14.0 km/h 22.2 km/h 61% 0.0 mm CLR
00:34 27.8 °C 19.8 °C 1008.5 hPa NNE 14.0 km/h 22.2 km/h 62% 0.0 mm CLR
00:39 27.6 °C 19.7 °C 1008.5 hPa ENE 14.0 km/h 22.0 km/h 62% 0.0 mm CLR
00:44 27.5 °C 19.8 °C 1008.5 hPa NNE 14.0 km/h 20.4 km/h 63% 0.0 mm CLR
00:49 27.4 °C 19.7 °C 1009.0 hPa ENE 13.7 km/h 24.1 km/h 63% 0.0 mm CLR
00:54 27.4 °C 20.0 °C 1009.0 hPa ENE 13.7 km/h 20.4 km/h 64% 0.0 mm CLR
00:59 27.3 °C 20.2 °C 1009.0 hPa ENE 15.6 km/h 22.2 km/h 65% 0.0 mm CLR
01:04 27.2 °C 20.1 °C 1009.3 hPa NE 15.6 km/h 22.2 km/h 65% 0.0 mm CLR
01:09 27.3 °C 20.4 °C 1009.3 hPa NE 14.8 km/h 20.4 km/h 66% 0.0 mm CLR
01:14 27.2 °C 20.1 °C 1009.3 hPa NE 14.8 km/h 18.5 km/h 65% 0.0 mm CLR
01:19 27.2 °C 20.3 °C 1009.1 hPa NNE 11.1 km/h 13.0 km/h 66% 0.0 mm CLR
01:24 27.2 °C 20.8 °C 1009.1 hPa ENE 11.1 km/h 16.7 km/h 68% 0.0 mm CLR
01:29 27.1 °C 21.2 °C 1009.1 hPa NE 11.1 km/h 20.4 km/h 70% 0.0 mm CLR
01:34 27.0 °C 21.1 °C 1009.1 hPa East 11.1 km/h 18.5 km/h 70% 0.0 mm CLR
01:39 26.9 °C 21.2 °C 1009.1 hPa NNE 13.0 km/h 24.1 km/h 71% 0.0 mm CLR
01:44 26.8 °C 21.1 °C 1009.1 hPa North 13.0 km/h 18.5 km/h 71% 0.0 mm CLR
01:49 26.8 °C 20.9 °C 1009.1 hPa NE 13.0 km/h 22.2 km/h 70% 0.0 mm CLR
01:54 26.8 °C 20.2 °C 1009.1 hPa East 13.0 km/h 10.0 km/h 67% 0.0 mm CLR
01:59 26.9 °C 18.7 °C 1009.1 hPa East 10.0 km/h 13.0 km/h 61% 0.0 mm CLR
02:04 27.1 °C 18.4 °C 1009.0 hPa ENE 10.0 km/h 7.4 km/h 59% 0.0 mm CLR
02:09 27.2 °C 18.2 °C 1009.0 hPa NE 5.8 km/h 6.4 km/h 58% 0.0 mm CLR
02:14 27.3 °C 18.1 °C 1009.0 hPa ESE 5.8 km/h 9.3 km/h 57% 0.0 mm CLR
02:19 27.3 °C 18.3 °C 1009.2 hPa East 6.4 km/h 20.4 km/h 58% 0.0 mm CLR
02:24 27.2 °C 18.8 °C 1009.2 hPa East 6.4 km/h 16.7 km/h 60% 0.0 mm CLR
02:29 27.1 °C 18.9 °C 1009.2 hPa ESE 11.9 km/h 14.8 km/h 61% 0.0 mm CLR
02:34 26.9 °C 19.0 °C 1009.1 hPa East 11.9 km/h 13.0 km/h 62% 0.0 mm CLR
02:39 26.8 °C 18.9 °C 1009.1 hPa East 7.6 km/h 11.1 km/h 62% 0.0 mm CLR
02:44 26.8 °C 19.2 °C 1009.1 hPa North 7.6 km/h 7.4 km/h 63% 0.0 mm CLR
02:49 26.7 °C 19.1 °C 1009.0 hPa NE 5.0 km/h 8.4 km/h 63% 0.0 mm CLR
02:54 26.7 °C 19.1 °C 1009.0 hPa NNE 5.0 km/h 9.3 km/h 63% 0.0 mm CLR
02:59 26.7 °C 19.1 °C 1009.0 hPa ESE 5.0 km/h 11.1 km/h 63% 0.0 mm CLR
03:04 26.6 °C 19.0 °C 1009.1 hPa NE 5.0 km/h 5.0 km/h 63% 0.0 mm CLR
03:09 26.6 °C 19.0 °C 1009.1 hPa East 5.0 km/h 9.3 km/h 63% 0.0 mm CLR
03:14 26.5 °C 19.1 °C 1009.1 hPa NE 5.0 km/h 9.3 km/h 64% 0.0 mm CLR
03:19 26.3 °C 18.9 °C 1008.9 hPa NE 6.9 km/h 7.4 km/h 64% 0.0 mm CLR
03:24 26.3 °C 19.2 °C 1008.9 hPa ENE 6.9 km/h 3.9 km/h 65% 0.0 mm CLR
03:29 26.3 °C 19.2 °C 1008.9 hPa East 3.2 km/h 7.4 km/h 65% 0.0 mm CLR
03:34 26.2 °C 19.3 °C 1008.9 hPa East 3.2 km/h 7.4 km/h 66% 0.0 mm CLR
03:39 26.1 °C 19.2 °C 1008.9 hPa NNE 5.8 km/h 5.6 km/h 66% 0.0 mm CLR
03:44 26.0 °C 19.4 °C 1008.9 hPa NE 5.8 km/h 9.3 km/h 67% 0.0 mm CLR
03:49 25.8 °C 19.2 °C 1008.7 hPa NE 5.8 km/h 7.4 km/h 67% 0.0 mm CLR
03:54 25.8 °C 19.4 °C 1008.7 hPa North 5.8 km/h 7.4 km/h 68% 0.0 mm CLR
03:59 25.7 °C 19.3 °C 1008.7 hPa NE 4.7 km/h 3.7 km/h 68% 0.0 mm CLR
04:04 25.7 °C 19.3 °C 1008.9 hPa NNE 4.7 km/h 5.0 km/h 68% 0.0 mm CLR
04:09 25.7 °C 19.6 °C 1008.9 hPa SE 3.9 km/h 6.9 km/h 69% 0.0 mm CLR
04:14 25.7 °C 19.6 °C 1008.9 hPa East 3.9 km/h 3.7 km/h 69% 0.0 mm CLR
04:19 25.7 °C 19.3 °C 1009.2 hPa SSE 4.7 km/h 7.4 km/h 68% 0.0 mm CLR
04:24 25.7 °C 19.6 °C 1009.2 hPa SE 4.7 km/h 7.4 km/h 69% 0.0 mm CLR
04:29 25.7 °C 19.6 °C 1009.2 hPa SE 3.9 km/h 6.4 km/h 69% 0.0 mm CLR
04:34 25.8 °C 19.4 °C 1009.6 hPa SSE 3.9 km/h 11.1 km/h 68% 0.0 mm CLR
04:39 25.8 °C 19.4 °C 1009.6 hPa SSE 6.9 km/h 14.8 km/h 68% 0.0 mm CLR
04:44 25.9 °C 19.6 °C 1009.6 hPa WNW 6.9 km/h 7.4 km/h 68% 0.0 mm CLR
04:49 25.9 °C 19.8 °C 1008.2 hPa North 6.4 km/h 6.4 km/h 69% 0.0 mm CLR
04:54 25.8 °C 19.4 °C 1008.2 hPa NNW 6.4 km/h 13.0 km/h 68% 0.0 mm CLR
04:59 25.6 °C 19.5 °C 1008.2 hPa North 7.6 km/h 13.0 km/h 69% 0.0 mm CLR
05:04 25.4 °C 19.6 °C 1007.9 hPa WNW 7.6 km/h 7.4 km/h 70% 0.0 mm CLR
05:09 25.2 °C 19.6 °C 1007.9 hPa NNW 6.4 km/h 7.4 km/h 71% 0.0 mm CLR
05:14 25.2 °C 19.8 °C 1007.9 hPa NNW 6.4 km/h 8.4 km/h 72% 0.0 mm CLR
05:19 25.1 °C 19.7 °C 1007.7 hPa NW 5.0 km/h 7.4 km/h 72% 0.0 mm CLR
05:24 25.1 °C 19.9 °C 1007.7 hPa WSW 5.0 km/h 4.7 km/h 73% 0.0 mm CLR
05:29 25.1 °C 19.9 °C 1007.7 hPa SW 2.9 km/h 5.8 km/h 73% 0.0 mm CLR
05:34 25.1 °C 19.9 °C 1008.2 hPa SW 2.9 km/h 7.4 km/h 73% 0.0 mm CLR
05:39 25.2 °C 20.0 °C 1008.2 hPa WNW 3.9 km/h 3.7 km/h 73% 0.0 mm CLR
05:44 25.2 °C 20.0 °C 1008.2 hPa ESE 3.9 km/h 3.7 km/h 73% 0.0 mm CLR
05:49 25.3 °C 19.9 °C 1007.9 hPa NE 2.3 km/h 7.4 km/h 72% 0.0 mm CLR
05:54 25.2 °C 19.8 °C 1007.9 hPa NE 2.3 km/h   72% 0.0 mm CLR
05:59 25.2 °C 19.8 °C 1007.9 hPa NE 2.9 km/h 3.7 km/h 72% 0.0 mm CLR
06:04 25.2 °C 20.0 °C 1008.6 hPa SSW 2.9 km/h 11.1 km/h 73% 0.0 mm CLR
06:09 25.2 °C 20.0 °C 1008.6 hPa SE 5.0 km/h 9.3 km/h 73% 0.0 mm CLR
06:14 25.2 °C 20.0 °C 1008.6 hPa SE 5.0 km/h 5.6 km/h 73% 0.0 mm CLR
06:19 25.1 °C 19.9 °C 1008.7 hPa WSW 5.0 km/h 9.3 km/h 73% 0.0 mm CLR
06:24 25.1 °C 19.9 °C 1008.7 hPa WSW 5.0 km/h 9.3 km/h 73% 0.0 mm CLR
06:29 25.2 °C 20.0 °C 1008.7 hPa WSW 5.0 km/h 7.6 km/h 73% 0.0 mm CLR
06:34 25.2 °C 20.0 °C 1008.6 hPa West 5.0 km/h 5.8 km/h 73% 0.0 mm CLR
06:39 25.2 °C 20.0 °C 1008.6 hPa WNW 3.9 km/h 3.9 km/h 73% 0.0 mm CLR
06:44 25.1 °C 19.9 °C 1008.6 hPa WNW 3.9 km/h   73% 0.0 mm CLR
06:49 25.1 °C 19.9 °C 1008.8 hPa Calm     73% 0.0 mm CLR
06:54 25.1 °C 19.9 °C 1008.8 hPa Calm     73% 0.0 mm CLR
06:59 25.1 °C 19.9 °C 1008.8 hPa Calm     73% 0.0 mm CLR
07:04 25.1 °C 19.9 °C 1008.9 hPa Calm   5.6 km/h 73% 0.0 mm CLR
07:09 25.1 °C 19.9 °C 1008.9 hPa NW 2.3 km/h 1.9 km/h 73% 0.0 mm CLR
07:14 24.9 °C 19.9 °C 1008.9 hPa NW 2.3 km/h 3.9 km/h 74% 0.0 mm CLR
07:19 24.9 °C 19.9 °C 1009.1 hPa Calm   5.0 km/h 74% 0.0 mm CLR
07:24 24.9 °C 19.9 °C 1009.1 hPa Calm   8.4 km/h 74% 0.0 mm CLR
07:29 24.9 °C 19.9 °C 1009.1 hPa SSE 5.0 km/h 7.6 km/h 74% 0.0 mm CLR
07:34 24.9 °C 19.9 °C 1008.9 hPa SSE 5.0 km/h 7.4 km/h 74% 0.0 mm CLR
07:39 25.0 °C 20.1 °C 1008.9 hPa SSE 5.0 km/h 3.7 km/h 74% 0.0 mm CLR
07:44 25.1 °C 20.1 °C 1008.9 hPa SSE 5.0 km/h 3.7 km/h 74% 0.0 mm CLR
07:49 25.1 °C 20.1 °C 1008.8 hPa East 3.2 km/h 7.4 km/h 74% 0.0 mm CLR
07:54 25.0 °C 20.1 °C 1008.8 hPa East 3.2 km/h 7.4 km/h 74% 0.0 mm CLR
07:59 24.9 °C 20.2 °C 1008.8 hPa NE 5.8 km/h 7.6 km/h 75% 0.0 mm CLR
08:04 24.8 °C 19.8 °C 1008.8 hPa ENE 5.8 km/h 7.4 km/h 74% 0.0 mm CLR
08:09 24.8 °C 19.8 °C 1008.8 hPa East 5.0 km/h 5.6 km/h 74% 0.0 mm CLR
08:14 24.8 °C 19.6 °C 1008.8 hPa ENE 5.0 km/h 7.4 km/h 73% 0.0 mm CLR
08:19 24.9 °C 19.9 °C 1009.0 hPa NNE 3.9 km/h 8.4 km/h 74% 0.0 mm CLR
08:24 24.8 °C 19.8 °C 1009.0 hPa NNE 3.9 km/h 11.1 km/h 74% 0.0 mm CLR
08:29 24.7 °C 20.2 °C 1009.0 hPa North 8.7 km/h 11.1 km/h 76% 0.0 mm CLR
08:34 24.7 °C 19.9 °C 1008.7 hPa NW 8.7 km/h 7.4 km/h 75% 0.0 mm CLR
08:39 24.7 °C 20.2 °C 1008.7 hPa WNW 6.4 km/h 9.5 km/h 76% 0.0 mm CLR
08:44 24.7 °C 20.2 °C 1008.7 hPa West 6.4 km/h 9.3 km/h 76% 0.0 mm CLR
08:49 24.7 °C 19.9 °C 1009.0 hPa West 6.9 km/h 7.4 km/h 75% 0.0 mm CLR
08:54 24.7 °C 19.9 °C 1009.0 hPa West 6.9 km/h 3.7 km/h 75% 0.0 mm CLR
08:59 24.8 °C 20.1 °C 1009.0 hPa SW 3.2 km/h 7.4 km/h 75% 0.0 mm CLR
09:04 24.8 °C 20.1 °C 1009.4 hPa WSW 3.2 km/h 7.4 km/h 75% 0.0 mm CLR
09:09 24.9 °C 20.4 °C 1009.4 hPa WSW 3.2 km/h 3.7 km/h 76% 0.0 mm CLR
09:14 25.1 °C 20.3 °C 1009.4 hPa WSW 3.2 km/h   75% 0.0 mm CLR
09:19 25.1 °C 20.3 °C 1009.0 hPa Calm   7.4 km/h 75% 0.0 mm CLR
09:24 25.1 °C 20.3 °C 1009.0 hPa Calm   7.4 km/h 75% 0.0 mm CLR
09:29 25.1 °C 19.9 °C 1009.0 hPa WNW 4.7 km/h 7.4 km/h 73% 0.0 mm CLR
09:34 25.2 °C 20.2 °C 1010.2 hPa NW 4.7 km/h   74% 0.0 mm CLR
09:39 25.2 °C 20.2 °C 1010.2 hPa NW 2.3 km/h 4.7 km/h 74% 0.0 mm CLR
09:44 25.3 °C 20.1 °C 1010.2 hPa NE 2.3 km/h 9.3 km/h 73% 0.0 mm CLR
09:49 25.3 °C 20.1 °C 1009.8 hPa ENE 4.7 km/h 8.7 km/h 73% 0.0 mm CLR
09:54 25.2 °C 20.2 °C 1009.8 hPa NNE 4.7 km/h 5.6 km/h 74% 0.0 mm CLR
09:59 25.3 °C 20.6 °C 1009.8 hPa East 3.9 km/h 5.8 km/h 75% 0.0 mm CLR
10:04 25.4 °C 20.7 °C 1009.5 hPa NE 3.9 km/h 9.5 km/h 75% 0.0 mm CLR
10:09 25.4 °C 20.7 °C 1009.5 hPa NNE 6.4 km/h 13.0 km/h 75% 0.0 mm CLR
10:14 25.6 °C 20.8 °C 1009.5 hPa ENE 6.4 km/h 9.3 km/h 75% 0.0 mm CLR
10:19 25.6 °C 20.8 °C 1009.9 hPa East 5.0 km/h 5.8 km/h 75% 0.0 mm CLR
10:24 25.7 °C 20.7 °C 1009.9 hPa ESE 5.0 km/h 4.7 km/h 74% 0.0 mm CLR
10:29 26.0 °C 20.8 °C 1009.9 hPa North 3.2 km/h 7.4 km/h 73% 0.0 mm CLR
10:34 26.3 °C 20.8 °C 1009.9 hPa ESE 3.2 km/h 4.7 km/h 72% 0.0 mm CLR
10:39 26.4 °C 20.5 °C 1009.9 hPa NNW 3.2 km/h 9.3 km/h 70% 0.0 mm CLR
10:44 26.3 °C 20.4 °C 1009.9 hPa NE 3.2 km/h 8.4 km/h 70% 0.0 mm CLR
10:49 26.3 °C 20.2 °C 1009.6 hPa NE 5.0 km/h 11.1 km/h 69% 0.0 mm CLR
10:54 26.2 °C 20.1 °C 1009.6 hPa NNE 5.0 km/h 5.6 km/h 69% 0.0 mm CLR
10:59 26.3 °C 19.7 °C 1009.6 hPa NE 5.0 km/h 7.4 km/h 67% 0.0 mm CLR
11:04 26.6 °C 19.7 °C 1009.3 hPa North 5.0 km/h 9.3 km/h 66% 0.0 mm CLR
11:09 26.7 °C 19.3 °C 1009.3 hPa NNE 5.8 km/h 11.1 km/h 64% 0.0 mm CLR
11:14 26.6 °C 19.2 °C 1009.3 hPa East 5.8 km/h 9.3 km/h 64% 0.0 mm CLR
11:19 26.9 °C 19.8 °C 1009.6 hPa NNE 6.9 km/h 9.3 km/h 65% 0.0 mm CLR
11:24 27.1 °C 19.7 °C 1009.6 hPa ENE 6.9 km/h 9.3 km/h 64% 0.0 mm CLR
11:29 27.2 °C 19.8 °C 1009.6 hPa ESE 6.4 km/h 5.6 km/h 64% 0.0 mm CLR
11:34 27.3 °C 19.4 °C 1009.5 hPa NE 6.4 km/h 9.5 km/h 62% 0.0 mm CLR
11:39 27.2 °C 19.0 °C 1009.5 hPa NE 5.0 km/h 3.7 km/h 61% 0.0 mm CLR
11:44 27.3 °C 19.1 °C 1009.5 hPa ENE 5.0 km/h 7.4 km/h 61% 0.0 mm CLR
11:49 27.3 °C 19.1 °C 1009.3 hPa ENE 4.7 km/h 9.3 km/h 61% 0.0 mm CLR
11:54 27.3 °C 19.4 °C 1009.3 hPa ESE 4.7 km/h 7.4 km/h 62% 0.0 mm CLR
11:59 27.3 °C 19.9 °C 1009.3 hPa ESE 5.8 km/h 11.9 km/h 64% 0.0 mm CLR
12:04 27.3 °C 19.9 °C 1009.2 hPa ENE 5.8 km/h 13.0 km/h 64% 0.0 mm CLR
12:09 27.3 °C 20.2 °C 1009.2 hPa North 7.6 km/h 7.4 km/h 65% 0.0 mm CLR
12:14 27.3 °C 19.6 °C 1009.2 hPa ESE 7.6 km/h 13.0 km/h 63% 0.0 mm CLR
12:19 27.4 °C 19.7 °C 1009.4 hPa NE 7.6 km/h 9.3 km/h 63% 0.0 mm CLR
12:24 27.4 °C 19.5 °C 1009.4 hPa NNE 7.6 km/h 11.1 km/h 62% 0.0 mm CLR
12:29 27.4 °C 20.0 °C 1009.4 hPa NNE 9.5 km/h 20.4 km/h 64% 0.0 mm CLR
12:34 27.6 °C 20.2 °C 1009.4 hPa ENE 9.5 km/h 13.0 km/h 64% 0.0 mm CLR
12:39 27.8 °C 20.4 °C 1009.4 hPa ENE 10.0 km/h 11.1 km/h 64% 0.0 mm CLR
12:44 27.8 °C 19.8 °C 1009.4 hPa ENE 10.0 km/h 20.4 km/h 62% 0.0 mm CLR
12:49 27.8 °C 19.3 °C 1009.1 hPa NNE 13.0 km/h 14.8 km/h 60% 0.0 mm CLR
12:54 28.0 °C 19.5 °C 1009.1 hPa NNE 13.0 km/h 13.0 km/h 60% 0.0 mm CLR
12:59 28.1 °C 19.1 °C 1009.1 hPa NNE 9.5 km/h 16.7 km/h 58% 0.0 mm CLR
13:04 28.1 °C 18.8 °C 1009.2 hPa ENE 9.5 km/h 16.7 km/h 57% 0.0 mm CLR
13:09 28.2 °C 18.3 °C 1009.2 hPa NE 11.9 km/h 18.5 km/h 55% 0.0 mm CLR
13:14 28.1 °C 17.9 °C 1009.2 hPa NE 11.9 km/h 16.7 km/h 54% 0.0 mm CLR
13:19 28.0 °C 17.2 °C 1009.0 hPa NNE 13.0 km/h 20.9 km/h 52% 0.0 mm CLR
13:24 28.1 °C 17.3 °C 1009.0 hPa East 13.0 km/h 18.5 km/h 52% 0.0 mm CLR
13:29 28.2 °C 18.0 °C 1009.0 hPa ENE 14.0 km/h 22.2 km/h 54% 0.0 mm CLR
13:34 28.3 °C 18.1 °C 1009.1 hPa East 14.0 km/h 14.8 km/h 54% 0.0 mm CLR
13:39 28.5 °C 18.0 °C 1009.1 hPa NE 13.7 km/h 22.2 km/h 53% 0.0 mm CLR
13:44 28.8 °C 18.3 °C 1009.1 hPa ENE 13.7 km/h 22.2 km/h 53% 0.0 mm CLR
13:49 29.2 °C 17.1 °C 1009.0 hPa ENE 14.8 km/h 22.2 km/h 48% 0.0 mm CLR
13:54 29.3 °C 17.2 °C 1009.0 hPa ENE 14.8 km/h 24.1 km/h 48% 0.0 mm CLR
13:59 29.2 °C 17.1 °C 1009.0 hPa NE 13.7 km/h 18.5 km/h 48% 0.0 mm CLR
14:04 29.2 °C 17.1 °C 1009.1 hPa NE 13.7 km/h 18.5 km/h 48% 0.0 mm CLR
14:09 29.2 °C 17.1 °C 1009.1 hPa NE 12.2 km/h 24.1 km/h 48% 0.0 mm CLR
14:14 29.1 °C 16.9 °C 1009.1 hPa NE 12.2 km/h 19.0 km/h 48% 0.0 mm CLR
14:19 29.2 °C 17.4 °C 1009.0 hPa NE 13.7 km/h 16.4 km/h 49% 0.0 mm CLR
14:24 29.4 °C 17.6 °C 1009.0 hPa NE 13.7 km/h 16.7 km/h 49% 0.0 mm CLR
14:29 29.4 °C 17.9 °C 1009.0 hPa NE 11.9 km/h 16.7 km/h 50% 0.0 mm CLR
14:34 29.5 °C 18.3 °C 1008.6 hPa NE 11.9 km/h 14.8 km/h 51% 0.0 mm CLR
14:39 29.6 °C 17.8 °C 1008.6 hPa ENE 12.2 km/h 19.0 km/h 49% 0.0 mm CLR
14:44 29.6 °C 17.8 °C 1008.6 hPa NE 12.2 km/h 18.5 km/h 49% 0.0 mm CLR
14:49 29.7 °C 17.5 °C 1008.5 hPa NNE 12.2 km/h 13.7 km/h 48% 0.0 mm CLR
14:54 29.8 °C 15.5 °C 1008.5 hPa NE 12.2 km/h 16.7 km/h 42% 0.0 mm CLR
14:59 30.1 °C 15.0 °C 1008.5 hPa ENE 13.7 km/h 11.1 km/h 40% 0.0 mm CLR
15:04 30.2 °C 14.7 °C 1008.4 hPa NE 13.7 km/h 18.5 km/h 39% 0.0 mm CLR
15:09 30.2 °C 14.7 °C 1008.4 hPa NE 9.5 km/h 22.2 km/h 39% 0.0 mm CLR
15:14 30.2 °C 15.1 °C 1008.4 hPa NE 9.5 km/h 14.8 km/h 40% 0.0 mm CLR
15:19 30.3 °C 15.2 °C 1008.0 hPa NNE 12.2 km/h 25.1 km/h 40% 0.0 mm CLR
15:24 30.2 °C 15.9 °C 1008.0 hPa NE 12.2 km/h 22.2 km/h 42% 0.0 mm CLR
15:29 30.2 °C 16.2 °C 1008.0 hPa ENE 17.2 km/h 24.1 km/h 43% 0.0 mm CLR
15:34 30.2 °C 15.9 °C 1008.0 hPa ENE 17.2 km/h 18.5 km/h 42% 0.0 mm CLR
15:39 30.2 °C 16.2 °C 1008.0 hPa NNE 14.0 km/h 24.1 km/h 43% 0.0 mm CLR
15:44 30.3 °C 15.9 °C 1008.0 hPa NNE 14.0 km/h 22.2 km/h 42% 0.0 mm CLR
15:49 30.1 °C 15.0 °C 1007.9 hPa NNE 15.6 km/h 24.1 km/h 40% 0.0 mm CLR
15:54 29.9 °C 14.8 °C 1007.9 hPa NNE 15.6 km/h 18.5 km/h 40% 0.0 mm CLR
15:59 29.8 °C 15.1 °C 1007.9 hPa North 15.6 km/h 22.2 km/h 41% 0.0 mm CLR
16:04 29.6 °C 14.9 °C 1007.9 hPa NE 15.6 km/h 25.9 km/h 41% 0.0 mm CLR
16:09 29.6 °C 15.7 °C 1007.9 hPa NNE 16.4 km/h 25.9 km/h 43% 0.0 mm CLR
16:14 29.6 °C 16.1 °C 1007.9 hPa NE 16.4 km/h 21.7 km/h 44% 0.0 mm CLR
16:19 29.4 °C 16.9 °C 1007.7 hPa NE 16.4 km/h 20.4 km/h 47% 0.0 mm CLR
16:24 29.4 °C 17.2 °C 1007.7 hPa NNE 16.4 km/h 20.4 km/h 48% 0.0 mm CLR
16:29 29.2 °C 17.7 °C 1007.7 hPa NNE 16.1 km/h 22.2 km/h 50% 0.0 mm CLR
16:34 29.0 °C 17.8 °C 1007.8 hPa NE 16.1 km/h 16.7 km/h 51% 0.0 mm CLR
16:39 28.9 °C 17.4 °C 1007.8 hPa NNE 14.0 km/h 24.1 km/h 50% 0.0 mm CLR
16:44 28.8 °C 17.3 °C 1007.8 hPa NE 14.0 km/h 22.2 km/h 50% 0.0 mm CLR
16:49 28.8 °C 17.9 °C 1007.8 hPa North 16.4 km/h 24.1 km/h 52% 0.0 mm CLR
16:54 28.8 °C 17.7 °C 1007.8 hPa NE 16.4 km/h 24.1 km/h 51% 0.0 mm CLR
16:59 28.8 °C 17.0 °C 1007.8 hPa NNE 14.8 km/h 27.0 km/h 49% 0.0 mm CLR
17:04 28.8 °C 16.7 °C 1007.8 hPa East 14.8 km/h 22.2 km/h 48% 0.0 mm CLR
17:09 28.9 °C 16.8 °C 1007.8 hPa ENE 19.0 km/h 25.9 km/h 48% 0.0 mm CLR
17:14 29.0 °C 17.2 °C 1007.8 hPa NNE 19.0 km/h 31.5 km/h 49% 0.0 mm CLR
17:19 29.1 °C 17.6 °C 1007.7 hPa NNE 19.8 km/h 31.5 km/h 50% 0.0 mm CLR
17:24 29.1 °C 19.1 °C 1007.7 hPa NE 19.8 km/h 24.1 km/h 55% 0.0 mm CLR
17:29 29.1 °C 19.4 °C 1007.7 hPa NNE 19.0 km/h 33.3 km/h 56% 0.0 mm CLR
17:34 29.1 °C 19.7 °C 1007.5 hPa NE 19.0 km/h 28.6 km/h 57% 0.0 mm CLR
17:39 29.1 °C 19.7 °C 1007.5 hPa North 20.9 km/h 29.6 km/h 57% 0.0 mm CLR
17:44 29.2 °C 20.4 °C 1007.5 hPa ENE 20.9 km/h 27.8 km/h 59% 0.0 mm CLR
17:49 29.4 °C 20.3 °C 1007.5 hPa NE 19.0 km/h 29.1 km/h 58% 0.0 mm CLR
17:54 29.1 °C 20.0 °C 1007.5 hPa NNE 19.0 km/h 31.5 km/h 58% 0.0 mm CLR
17:59 29.3 °C 20.2 °C 1007.5 hPa NE 22.5 km/h 23.7 km/h 58% 0.0 mm CLR
18:04 29.4 °C 20.0 °C 1007.2 hPa NE 22.5 km/h 27.8 km/h 57% 0.0 mm CLR
18:09 29.4 °C 20.3 °C 1007.2 hPa NNE 20.9 km/h 32.3 km/h 58% 0.0 mm CLR
18:14 29.3 °C 20.2 °C 1007.2 hPa NE 20.9 km/h 35.2 km/h 58% 0.0 mm CLR
18:19 29.1 °C 20.3 °C 1007.1 hPa NE 23.3 km/h 33.3 km/h 59% 0.0 mm CLR
18:24 28.9 °C 20.3 °C 1007.1 hPa North 23.3 km/h 27.8 km/h 60% 0.0 mm CLR
18:29 29.1 °C 20.6 °C 1007.1 hPa NE 20.1 km/h 24.1 km/h 60% 0.0 mm CLR
18:34 28.8 °C 20.6 °C 1007.1 hPa NE 20.1 km/h 32.3 km/h 61% 0.0 mm CLR
18:39 28.7 °C 20.4 °C 1007.1 hPa NE 21.7 km/h 33.3 km/h 61% 0.0 mm CLR
18:44 28.6 °C 20.6 °C 1007.1 hPa NNE 21.7 km/h 29.6 km/h 62% 0.0 mm CLR
18:49 28.7 °C 20.7 °C 1006.9 hPa NNE 20.1 km/h 25.9 km/h 62% 0.0 mm CLR
18:54 28.8 °C 20.8 °C 1006.9 hPa NE 20.1 km/h 25.9 km/h 62% 0.0 mm CLR
18:59 28.8 °C 20.6 °C 1006.9 hPa ENE 19.0 km/h 35.2 km/h 61% 0.0 mm CLR
19:04 28.9 °C 20.6 °C 1006.9 hPa East 19.0 km/h 29.6 km/h 61% 0.0 mm CLR
19:09 28.8 °C 20.8 °C 1006.9 hPa NNE 18.3 km/h 29.6 km/h 62% 0.0 mm CLR
19:14 28.6 °C 20.6 °C 1006.9 hPa ENE 18.3 km/h 31.7 km/h 62% 0.0 mm CLR
19:19 28.3 °C 20.6 °C 1006.7 hPa NE 19.8 km/h 27.8 km/h 63% 0.0 mm CLR
19:24 28.1 °C 20.4 °C 1006.7 hPa ENE 19.8 km/h 27.8 km/h 63% 0.0 mm CLR
19:29 28.1 °C 20.1 °C 1006.7 hPa NE 19.0 km/h 22.2 km/h 62% 0.0 mm CLR
19:34 27.9 °C 19.9 °C 1006.7 hPa ENE 19.0 km/h 27.8 km/h 62% 0.0 mm CLR
19:39 27.7 °C 19.8 °C 1006.7 hPa NNE 19.0 km/h 33.3 km/h 62% 0.0 mm CLR
19:44 27.6 °C 19.7 °C 1006.7 hPa NE 19.0 km/h 25.9 km/h 62% 0.0 mm CLR
19:49 27.4 °C 19.2 °C 1006.8 hPa NE 18.0 km/h 27.8 km/h 61% 0.0 mm CLR
19:54 27.3 °C 19.4 °C 1006.8 hPa NE 18.0 km/h 27.8 km/h 62% 0.0 mm CLR
19:59 27.1 °C 19.2 °C 1006.8 hPa NNE 18.3 km/h 24.1 km/h 62% 0.0 mm CLR
20:04 26.9 °C 19.3 °C 1007.2 hPa NNE 18.3 km/h 29.6 km/h 63% 0.0 mm CLR
20:09 26.7 °C 19.3 °C 1007.2 hPa ENE 20.9 km/h 31.5 km/h 64% 0.0 mm CLR
20:14 26.6 °C 19.2 °C 1007.2 hPa NE 20.9 km/h 29.6 km/h 64% 0.0 mm CLR
20:19 26.4 °C 19.1 °C 1007.3 hPa NNE 20.1 km/h 23.3 km/h 64% 0.0 mm CLR
20:24 26.3 °C 19.2 °C 1007.3 hPa ENE 20.1 km/h 40.7 km/h 65% 0.0 mm CLR
20:29 26.3 °C 19.2 °C 1007.3 hPa North 19.0 km/h 33.3 km/h 65% 0.0 mm CLR
20:34 26.2 °C 19.1 °C 1007.5 hPa NNE 19.0 km/h 33.3 km/h 65% 0.0 mm CLR
20:39 26.2 °C 19.6 °C 1007.5 hPa NNE 18.3 km/h 31.5 km/h 67% 0.0 mm CLR
20:44 26.1 °C 19.7 °C 1007.5 hPa NE 18.3 km/h 29.1 km/h 68% 0.0 mm CLR
20:49 25.8 °C 19.7 °C 1007.6 hPa NE 19.0 km/h 35.2 km/h 69% 0.0 mm CLR
20:54 25.7 °C 19.8 °C 1007.6 hPa NE 19.0 km/h 31.5 km/h 70% 0.0 mm CLR
20:59 25.7 °C 20.1 °C 1007.6 hPa NE 19.8 km/h 29.6 km/h 71% 0.0 mm CLR
21:04 25.6 °C 20.2 °C 1007.9 hPa ENE 19.8 km/h 29.6 km/h 72% 0.0 mm CLR
21:09 25.5 °C 20.3 °C 1007.9 hPa NNE 18.3 km/h 25.9 km/h 73% 0.0 mm CLR
21:14 25.4 °C 20.4 °C 1007.9 hPa NNE 18.3 km/h 25.9 km/h 74% 0.0 mm CLR
21:19 25.3 °C 20.6 °C 1008.2 hPa NE 16.1 km/h 18.5 km/h 75% 0.0 mm CLR
21:24 25.2 °C 20.4 °C 1008.2 hPa NE 16.1 km/h 26.2 km/h 75% 0.0 mm CLR
21:29 25.1 °C 20.6 °C 1008.2 hPa NE 14.8 km/h 25.9 km/h 76% 0.0 mm CLR
21:34 24.9 °C 20.4 °C 1008.3 hPa NE 14.8 km/h 24.1 km/h 76% 0.0 mm CLR
21:39 24.8 °C 20.5 °C 1008.3 hPa NNE 14.0 km/h 20.9 km/h 77% 0.0 mm CLR
21:44 24.7 °C 20.4 °C 1008.3 hPa NNE 14.0 km/h 16.7 km/h 77% 0.0 mm CLR
21:49 24.5 °C 20.4 °C 1008.5 hPa NE 13.7 km/h 18.0 km/h 78% 0.0 mm CLR
21:54 24.4 °C 20.3 °C 1008.5 hPa ENE 13.7 km/h 16.1 km/h 78% 0.0 mm CLR
21:59 24.3 °C 20.4 °C 1008.5 hPa NE 12.2 km/h 24.1 km/h 79% 0.0 mm CLR
22:04 24.2 °C 20.3 °C 1008.7 hPa NNE 12.2 km/h 22.2 km/h 79% 0.0 mm CLR
22:09 24.2 °C 20.6 °C 1008.7 hPa NE 15.6 km/h 20.4 km/h 80% 0.0 mm CLR
22:14 24.1 °C 20.4 °C 1008.7 hPa NE 15.6 km/h 22.2 km/h 80% 0.0 mm CLR
22:19 24.1 °C 20.4 °C 1008.7 hPa NE 15.6 km/h 20.4 km/h 80% 0.0 mm CLR
22:24 24.0 °C 20.3 °C 1008.7 hPa NE 15.6 km/h 20.1 km/h 80% 0.0 mm CLR
22:29 23.9 °C 20.4 °C 1008.7 hPa NE 12.2 km/h 18.5 km/h 81% 0.0 mm CLR
22:34 23.9 °C 20.4 °C 1008.8 hPa ENE 12.2 km/h 20.4 km/h 81% 0.0 mm CLR
22:39 23.8 °C 20.3 °C 1008.8 hPa ENE 13.7 km/h 22.2 km/h 81% 0.0 mm CLR
22:44 23.8 °C 20.3 °C 1008.8 hPa NNE 13.7 km/h 16.7 km/h 81% 0.0 mm CLR
22:49 23.8 °C 20.3 °C 1009.1 hPa ENE 11.1 km/h 13.0 km/h 81% 0.0 mm CLR
22:54 23.7 °C 20.4 °C 1009.1 hPa NNE 11.1 km/h 14.0 km/h 82% 0.0 mm CLR
22:59 23.7 °C 20.4 °C 1009.1 hPa NE 8.7 km/h 13.0 km/h 82% 0.0 mm CLR
23:04 23.6 °C 20.3 °C 1009.3 hPa North 8.7 km/h 11.1 km/h 82% 0.0 mm CLR
23:09 23.6 °C 20.3 °C 1009.3 hPa ENE 8.7 km/h 16.7 km/h 82% 0.0 mm CLR
23:14 23.6 °C 20.3 °C 1009.3 hPa NNE 8.7 km/h 9.3 km/h 82% 0.0 mm CLR
23:19 23.6 °C 20.3 °C 1009.4 hPa NE 6.9 km/h 11.1 km/h 82% 0.0 mm CLR
23:24 23.6 °C 20.3 °C 1009.4 hPa NNE 6.9 km/h 13.0 km/h 82% 0.0 mm CLR
23:29 23.5 °C 20.4 °C 1009.4 hPa NNE 8.7 km/h 13.0 km/h 83% 0.0 mm CLR
23:34 23.4 °C 20.3 °C 1009.6 hPa North 8.7 km/h 13.0 km/h 83% 0.0 mm CLR
23:39 23.4 °C 20.3 °C 1009.6 hPa NE 7.6 km/h 9.3 km/h 83% 0.0 mm CLR
23:44 23.4 °C 20.3 °C 1009.6 hPa North 7.6 km/h 7.6 km/h 83% 0.0 mm CLR
23:49 23.3 °C 20.2 °C 1009.7 hPa NNE 5.8 km/h 13.0 km/h 83% 0.0 mm CLR
23:54 23.3 °C 20.2 °C 1009.7 hPa NE 5.8 km/h 9.3 km/h 83% 0.0 mm CLR
23:59 23.3 °C 20.2 °C 1009.7 hPa NNE 6.9 km/h 9.5 km/h 83% 0.0 mm CLR
Murcia-Puente Tocinos, España
Compliments of Weather Underground - 2.5 mb

La estación de MeteoMurcia.com, publica sus datos en los siguientes proyectos:

Weather Underground PWS IMURCIAP2 Meteoclimatic www.awekas.at

W3Counter
Web Analytics